Arbuckle, California
Current Conditions -  °F | °C
As of 1:53 AM on Tuesday 21 Oct 2014 (Local Time) from KMYV Reporting Station
Clear Clear  
Wind Chill: 52°   Ceiling: Unl
Heat Index: 52°   Visibility: 10mi
Dew Point: 46°   Wind: 6mph
Humidity: 80%   Direction: 120°ESE
Pressure: 30.06"   Gusts: NA
Location:  39.02°N, 122.06°W
Report Text: KMYV 210853Z AUTO 12005KT 10SM CLR 11/08 A3006 RMK AO2 SLP183 T01110078 51017
Loading
Personal Weather Stations






























Interactive Weather Map New forecast layout! Learn more

10-Day Weather Forecast

Advertisements
Track Severe Weather on mobile